Mariner Of The Seas — C6FV9 — position and weather

sailwx.info

Track history (hours):
 
Tides and Currents Weather Stations Pressure Air Temp Water Temp Dewpoint Dewpoint Depression Visibility Wind Speed Wind Dir Waves Ship Positions

Mariner Of The Seas

Operator: Royal Caribbean Cruises Ltd

Last reported at 2016-Jul-23 11:24 UTC. Time now 2016-Jul-23 13:03 UTC.
Position N 31°29' E 123°03'.

Type: Passenger vessel. MMSI: 311493000.

Date/timePositionNaut miles runAvg speedWind from/ knotsBaromVisibWave heightAir tempDewpointWater temp
2016-Jul-23 11:24N 31°29' E 123°03'3214.2
2016-Jul-23 09:11N 31°43' E 123°36'  
2016-Jul-19 09:18N 31°20' E 121°42'911.5
2016-Jul-19 08:33N 31°24' E 121°33'3 0.6
2016-Jul-19 04:24N 31°25' E 121°30'0 0.0
2016-Jul-19 03:30N 31°25' E 121°30'0 0.0
2016-Jul-19 02:24N 31°25' E 121°30'0 0.0
2016-Jul-19 01:30N 31°25' E 121°30'0 0.0
2016-Jul-19 00:30N 31°25' E 121°30'0 0.0
2016-Jul-18 23:30N 31°25' E 121°30'5 5.8
2016-Jul-18 22:33N 31°23' E 121°36'  
2016-Jul-15 12:15N 31°19' E 121°43'3 4.8
2016-Jul-15 11:33N 31°21' E 121°39'8 8.2
2016-Jul-15 10:34N 31°25' E 121°31'0 0.5
2016-Jul-15 09:33N 31°25' E 121°30'0 0.0
2016-Jul-15 08:33N 31°25' E 121°30'0 0.0
2016-Jul-15 07:33N 31°25' E 121°30'0 0.0
2016-Jul-15 06:33N 31°25' E 121°30'0 0.0
2016-Jul-15 05:33N 31°25' E 121°30'0 0.0
2016-Jul-15 04:33N 31°25' E 121°30'0 0.0
2016-Jul-15 03:33N 31°25' E 121°30'0 0.0
2016-Jul-15 02:33N 31°25' E 121°30'0 0.0
2016-Jul-15 01:33N 31°25' E 121°30'0 0.0
2016-Jul-15 00:21N 31°25' E 121°30'0 0.0
2016-Jul-14 23:27N 31°25' E 121°30'0 0.1
2016-Jul-14 22:33N 31°25' E 121°30'8 8.4
2016-Jul-14 21:33N 31°21' E 121°39'  
Track history (hours):
 
Tides and Currents Weather Stations Pressure Air Temp Water Temp Dewpoint Dewpoint Depression Visibility Wind Speed Wind Dir Waves Ship Positions

Mariner Of The Seas

Operator: Royal Caribbean Cruises Ltd

Last reported at 2016-Jul-23 11:24 UTC. Time now 2016-Jul-23 13:03 UTC.
Position N 31°29' E 123°03'.

Type: Passenger vessel. MMSI: 311493000.

Date/timePositionNaut miles runAvg speedWind from/ knotsBaromVisibWave heightAir tempDewpointWater temp
2016-Jul-23 11:24N 31°29' E 123°03'3214.2
2016-Jul-23 09:11N 31°43' E 123°36'  
2016-Jul-19 09:18N 31°20' E 121°42'911.5
2016-Jul-19 08:33N 31°24' E 121°33'3 0.6
2016-Jul-19 04:24N 31°25' E 121°30'0 0.0
2016-Jul-19 03:30N 31°25' E 121°30'0 0.0
2016-Jul-19 02:24N 31°25' E 121°30'0 0.0
2016-Jul-19 01:30N 31°25' E 121°30'0 0.0
2016-Jul-19 00:30N 31°25' E 121°30'0 0.0
2016-Jul-18 23:30N 31°25' E 121°30'5 5.8
2016-Jul-18 22:33N 31°23' E 121°36'  
2016-Jul-15 12:15N 31°19' E 121°43'3 4.8
2016-Jul-15 11:33N 31°21' E 121°39'8 8.2
2016-Jul-15 10:34N 31°25' E 121°31'0 0.5
2016-Jul-15 09:33N 31°25' E 121°30'0 0.0
2016-Jul-15 08:33N 31°25' E 121°30'0 0.0
2016-Jul-15 07:33N 31°25' E 121°30'0 0.0
2016-Jul-15 06:33N 31°25' E 121°30'0 0.0
2016-Jul-15 05:33N 31°25' E 121°30'0 0.0
2016-Jul-15 04:33N 31°25' E 121°30'0 0.0
2016-Jul-15 03:33N 31°25' E 121°30'0 0.0
2016-Jul-15 02:33N 31°25' E 121°30'0 0.0
2016-Jul-15 01:33N 31°25' E 121°30'0 0.0
2016-Jul-15 00:21N 31°25' E 121°30'0 0.0
2016-Jul-14 23:27N 31°25' E 121°30'0 0.1
2016-Jul-14 22:33N 31°25' E 121°30'8 8.4
2016-Jul-14 21:33N 31°21' E 121°39'  

Dump ship's entire track history